x

East Gulf - 208 Mn West Of Naples, Fl (42003) Wave Buoy

6:50pm - Sat 18th Apr 2015 All times are EDT. -4 hours from GMT.

  • Sig Wave height 2.0ft
  • Swell Direction
  • Peak Period 4s
  • Average Period 4s
  • Wind
    11mph
  • Sea Temp 80°f
  • Air Temp 80°f
  • Sea Pressure 1013mb
  • East Gulf - 208 Mn West Of Naples, Fl
  • East Gulf - 208 Mn West Of Naples, Fl

More Historic Weather Station data

Upgrade to MSW Pro to gain access to the past 30 days of data for over 8000 Wavebouys and Weather Stations around the globe.

Join Pro

Comparision Forecast

View Surf forecast
   
Sat 04/18 6:50pm 2ft 4s 4s 11
mph
1013mb 80f 80f
5:50pm 2ft 7s 4s 13
mph
1012.4mb 80f 80f
4:50pm 2ft 7s 4s 13 16 mph 1012.5mb 80f 80f
3:50pm 2ft 8s 4s 11 13 mph 1013mb 80f 80f
2:50pm 2ft 7s 4s 9 11 mph 1014mb 80f 80f
1:50pm 2ft 6s 4s 7 9 mph 1014.8mb 80f 80f
12:50pm 2ft 7s 4s 7 9 mph 1015.5mb 80f 80f
11:50am 2ft 6s 4s 7
mph
1016mb 80f 80f
10:50am 2ft 7s 5s 7 9 mph 1015.4mb 80f 80f
9:50am 2ft 7s 5s 7 9 mph 1014.6mb 79f 80f
8:50am 2ft 7s 5s 7
mph
1014.2mb 79f 79f
7:50am 2ft 6s 5s 9
mph
1014.1mb 79f 79f
6:50am 2ft 8s 5s 9 11 mph 1013.6mb 79f 79f
5:50am 2ft 6s 5s 7
mph
1013.8mb 80f 79f
4:50am 2ft 6s 5s 4 7 mph 1013.7mb 80f 79f
3:50am 2ft 6s 5s 7
mph
1013.8mb 80f 79f
2:50am 2ft 5s 5s 4 7 mph 1014.1mb 80f 79f
1:50am 2.5ft 5s 5s 4 7 mph 1014.6mb 80f 79f
12:50am 2ft 6s 5s 4
mph
1015mb 80f 79f
Fri 04/17 11:50pm 2.5ft 6s 5s 7 9 mph 1015.2mb 80f 79f
10:50pm 2ft 6s 5s 7
mph
1015.1mb 80f 80f
9:50pm 2ft 6s 5s 7
mph
1014.5mb 80f 80f
8:50pm 2ft 6s 5s 2
mph
1014.7mb 80f 80f
7:50pm 2ft 6s 5s 7
mph
1014mb 80f 80f
6:50pm 2ft 6s 5s 7 9 mph 1014.3mb 81f 80f
5:50pm 2ft 6s 5s 7 9 mph 1014.4mb 81f 80f
4:50pm 2ft 6s 5s 7 9 mph 1014.8mb 80f 79f
3:50pm 2ft 6s 5s 9
mph
1015mb 80f 79f
2:50pm 2ft 7s 5s 7 9 mph 1016.2mb 80f 79f
1:50pm 2ft 6s 5s 7
mph
1016.8mb 80f 79f
12:50pm 2ft 6s 5s 9
mph
1017mb 80f 79f
11:50am 2ft 6s 4s 9 11 mph 1017.4mb 79f 78f
10:50am 2ft 6s 5s 9
mph
1017.4mb 79f 78f
9:50am 2ft 6s 4s 9 11 mph 1017.2mb 79f 78f
8:50am 2.5ft 6s 4s 11
mph
1016.6mb 79f 78f
7:50am 2.5ft 6s 4s 13 16 mph 1016mb 79f 78f
6:50am 2.5ft 6s 4s 13 16 mph 1015.3mb 79f 78f
5:50am 2.5ft 6s 4s 13 16 mph 1015.6mb 79f 78f
4:50am 2.5ft 6s 4s 16 18 mph 1015.4mb 79f 78f
3:50am 2.5ft 6s 5s 13 16 mph 1015.7mb 79f 78f
2:50am 2.5ft 6s 5s 13 16 mph 1015.7mb 79f 78f
1:50am 2.5ft 6s 5s 13 16 mph 1016.2mb 79f 78f
12:50am 2.5ft 6s 5s 11 13 mph 1016.5mb 79f 78f
Thu 04/16 11:50pm 2.5ft 6s 5s 13 16 mph 1016.4mb 79f 78f
10:50pm 2.5ft 7s 5s 11 13 mph 1016.8mb 80f 78f
9:50pm 2.5ft 6s 5s 11 13 mph 1016.7mb 80f 79f
8:50pm 2.5ft 6s 5s 11 13 mph 1016.1mb 80f 78f
7:50pm 2.5ft 7s 4s 9 13 mph 1016mb 80f 79f
6:50pm 2.5ft 7s 5s 11 13 mph 1015.9mb 80f 79f
5:50pm 2.5ft 6s 4s 13 16 mph 1015.9mb 80f 79f
3:50pm 2.5ft 6s 4s 11 13 mph 1016.4mb 79f 78f
2:50pm 2.5ft 6s 4s 13 16 mph 1016.9mb 79f 78f
1:50pm 2ft 7s 4s 13 16 mph 1017mb 79f 78f
12:50pm 2.5ft 7s 4s 13 18 mph 1017.3mb 78f 78f
11:50am 2ft 7s 4s 16 18 mph 1017.8mb 78f 78f
10:50am 2.5ft 7s 5s 13 16 mph 1018.1mb 78f 78f
9:50am 2.5ft 7s 5s 11 13 mph 1018mb 78f 78f
8:50am 2.5ft 7s 5s 11 13 mph 1018.2mb 78f 78f
7:50am 2.5ft 6s 5s 11 13 mph 1017.8mb 78f 78f
6:50am 2.5ft 7s 5s 13
mph
1017.1mb 78f 78f
5:50am 2.5ft 7s 5s 11 13 mph 1016.8mb 78f 78f
4:50am 2.5ft 7s 5s 11 13 mph 1016.7mb 78f 78f
3:50am 2.5ft 7s 5s 11 13 mph 1016.7mb 79f 78f
2:50am 2.5ft 7s 5s 11
mph
1016.8mb 79f 78f
1:50am 2.5ft 7s 5s 9 11 mph 1017.3mb 79f 78f
12:50am 2.5ft 7s 5s 11 13 mph 1017.2mb 79f 78f
Wed 04/15 11:50pm 2.5ft 7s 5s 11
mph
1017.9mb 79f 78f
10:50pm 3ft 6s 5s 11 13 mph 1017.4mb 79f 78f
9:50pm 2.5ft 7s 5s 9
mph
1017.4mb 79f 78f
8:50pm 2.5ft 7s 5s 7 9 mph 1016.9mb 79f 78f
7:50pm 2.5ft 6s 5s 9
mph
1016.2mb 79f 78f
6:50pm 2.5ft 7s 5s 4 7 mph 1016mb 79f 78f
5:50pm 2.5ft 7s 5s 7 9 mph 1015.7mb 79f 78f
4:50pm 2.5ft 7s 5s 7 9 mph 1016mb 79f 79f
3:50pm 2.5ft 7s 5s 9
mph
1016.5mb 79f 79f
2:50pm 2.5ft 7s 5s 11 13 mph 1017mb 79f 78f
1:50pm 2.5ft 7s 5s 9 11 mph 1017.5mb 79f 78f
12:50pm 2.5ft 8s 5s 11
mph
1017.7mb 78f 78f
11:50am 2.5ft 8s 5s 11 13 mph 1017.8mb 78f 78f
10:50am 2.5ft 8s 5s 13 16 mph 1017.3mb 78f 78f
9:50am 2.5ft 7s 5s 13 16 mph 1017.1mb 78f 78f
8:50am 2.5ft 8s 5s 11 13 mph 1017mb 78f 78f
7:50am 2.5ft 7s 5s 11 13 mph 1016.9mb 78f 78f
6:50am 2.5ft 7s 5s 9
mph
1017mb 78f 77f
5:50am 2.5ft 6s 5s 7 9 mph 1016.9mb 78f 77f
4:50am 2.5ft 7s 5s 9 11 mph 1016.9mb 78f 78f
3:50am 2.5ft 7s 5s 9
mph
1017mb 78f 77f
2:50am 2.5ft 7s 5s 11
mph
1017.1mb 78f 77f
1:50am 3ft 6s 5s 9 11 mph 1017.3mb 78f 78f
12:50am 2.5ft 7s 5s 11 13 mph 1017.4mb 78f 78f